Latest Coastal Weather Observations for Sunshine Coast Airport

IDQ60701

Issued at 8:02 pm EST Monday 1 June 2020 (issued every 10 minutes, with the page automatically refreshed every 10 minutes)

About coastal observations | Map of coastal stations | Coastal observations for QLD | Marine services | Other Formats
Station Details ID: 040861 Name: SUNSHINE COAST AIRPORT Lat: -26.60 Lon: 153.09 Height: 3.42 m
Data from the previous 72 hours. | See also: Recent months at Sunshine Coast Airport
Date/Time
EST
Wind Sea
Height
m
Swell Vis
km
Cloud Weather Temp
°C
Press
hPa
Rain since
9am
mm
Dir  Spd
kts
Gust
kts
Height
m
Period
s
Dir
01/08:00pm NNW 9 11 - - - - 10 Clear - 17.6 1016.3 0.0
01/07:30pm NNW 6 8 - - - - 10 - - 17.2 1016.0 0.0
01/07:00pm NNW 7 10 - - - - 10 - - 17.8 1016.0 0.0
01/06:30pm NNW 8 10 - - - - 10 - - 18.2 1015.8 0.0
01/06:00pm N 9 13 - - - - 10 - - 19.7 1015.4 0.0
01/05:30pm N 9 12 - - - - 10 - - 19.8 1015.2 0.0
01/05:00pm N 8 11 - - - - 10 - - 19.9 1015.0 0.0
01/04:30pm N 9 11 - - - - 10 Partly cloudy - 20.7 1014.9 0.0
01/04:00pm N 10 13 - - - - 10 Partly cloudy - 21.3 1014.7 0.0
01/03:30pm N 9 12 - - - - 10 - - 21.8 1014.7 0.0
01/03:00pm N 11 14 - - - - 10 Mostly clear - 22.7 1014.6 0.0
01/02:30pm NNE 12 16 - - - - 10 Partly cloudy - 22.6 1014.7 0.0
01/02:00pm NNE 9 12 - - - - 10 Partly cloudy - 22.4 1014.8 0.0
01/01:30pm NNE 11 14 - - - - 10 Partly cloudy - 22.2 1015.0 0.0
01/01:00pm NNE 11 15 - - - - 10 Partly cloudy - 22.2 1015.2 0.0
01/12:30pm N 8 11 - - - - 10 Partly cloudy - 23.0 1015.6 0.0
01/12:00pm N 9 12 - - - - 10 Mostly clear - 23.3 1016.3 0.0
01/11:30am N 9 13 - - - - 10 Partly cloudy - 23.1 1017.0 0.0
01/11:00am NE 7 9 - - - - 10 Partly cloudy - 21.8 1017.6 0.0
01/10:30am NNW 7 13 - - - - 10 Partly cloudy - 23.1 1018.0 0.0
01/10:00am NW 7 9 - - - - 10 - - 22.1 1018.4 0.0
01/09:30am NW 4 5 - - - - 10 - - 20.7 1018.8 0.0
01/09:00am WNW 4 5 - - - - 10 - - 18.8 1019.2 0.0
01/08:30am W 4 5 - - - - 10 - - 17.8 1019.2 0.0
01/08:00am CALM 0 0 - - - - 10 Partly cloudy - 16.4 1019.0 0.0
01/07:30am CALM 0 0 - - - - 10 Partly cloudy - 15.8 1018.9 0.0
01/07:00am ESE 4 5 - - - - 10 Partly cloudy - 15.1 1018.8 0.0
01/06:30am CALM 0 1 - - - - 10 Partly cloudy - 15.0 1018.5 0.0
01/06:00am W 4 5 - - - - 10 Mostly cloudy - 14.7 1018.2 0.0
01/05:30am W 4 5 - - - - 10 Partly cloudy - 14.7 1018.1 0.0
01/05:00am W 4 5 - - - - 10 Partly cloudy - 14.9 1018.1 0.0
01/04:30am W 4 4 - - - - 10 Partly cloudy - 15.0 1018.0 0.0
01/04:00am W 5 6 - - - - 10 Partly cloudy - 15.0 1018.0 0.0
01/03:30am W 5 6 - - - - 10 Cloudy - 14.9 1018.1 0.0
01/03:00am W 4 5 - - - - 10 Mostly cloudy - 14.9 1018.1 0.0
01/02:30am W 4 5 - - - - 10 Cloudy - 15.0 1018.2 0.0
01/02:00am W 4 5 - - - - 10 Cloudy - 15.0 1018.3 0.0
01/01:30am WNW 6 6 - - - - 10 Cloudy - 15.0 1018.5 0.0
01/01:00am WNW 4 6 - - - - 10 Partly cloudy - 14.8 1018.9 0.0
01/12:30am W 4 5 - - - - 10 Partly cloudy - 14.5 1019.1 0.0
01/12:00am WNW 5 6 - - - - 10 Partly cloudy - 14.6 1019.3 0.0
 
Date/Time
EST
Wind Sea
Height
m
Swell Vis
km
Cloud Weather Temp
°C
Press
hPa
Rain since
9am
mm
Dir  Spd
kts
Gust
kts
Height
m
Period
s
Dir
31/11:30pm W 3 4 - - - - 10 - - 15.0 1019.5 0.0
31/11:00pm W 4 5 - - - - 10 - - 14.8 1019.9 0.0
31/10:30pm W 3 3 - - - - 10 - - 15.5 1020.2 0.0
31/10:00pm W 4 5 - - - - 10 Partly cloudy - 15.8 1020.4 0.0
31/09:30pm W 2 4 - - - - 10 Partly cloudy - 16.3 1020.5 0.0
31/09:00pm W 3 4 - - - - 10 Mostly cloudy - 16.6 1020.5 0.0
31/08:30pm W 5 6 - - - - 10 Partly cloudy - 16.6 1020.5 0.0
31/08:00pm WNW 3 5 - - - - 10 Partly cloudy - 17.2 1020.4 0.0
31/07:30pm ENE 7 9 - - - - 10 - - 20.0 1020.3 0.0
31/07:00pm ENE 7 10 - - - - 10 - - 20.2 1020.3 0.0
31/06:30pm E 7 10 - - - - 10 - - 20.1 1020.1 0.0
31/06:00pm E 8 9 - - - - 10 - - 20.2 1020.1 0.0
31/05:30pm E 9 11 - - - - 10 - - 20.1 1019.7 0.0
31/05:00pm ESE 8 10 - - - - 10 - - 20.2 1019.8 0.0
31/04:30pm ESE 9 12 - - - - 10 - - 20.4 1019.6 0.0
31/04:00pm ESE 8 12 - - - - 10 - - 21.0 1019.4 0.0
31/03:30pm SE 9 13 - - - - 10 - - 21.1 1019.4 0.0
31/03:00pm SE 11 14 - - - - 10 - - 21.4 1019.4 0.0
31/02:30pm SE 11 15 - - - - 10 - - 22.0 1019.5 0.0
31/02:00pm SE 12 15 - - - - 10 - - 21.9 1019.7 0.0
31/01:30pm SE 11 14 - - - - 10 - - 21.8 1019.8 0.0
31/01:00pm ESE 10 13 - - - - 10 - - 21.9 1020.1 0.0
31/12:30pm SE 10 12 - - - - 10 - - 22.0 1020.6 0.0
31/12:00pm SE 9 11 - - - - 10 Mostly clear - 22.1 1021.0 0.0
31/11:30am S 6 9 - - - - 10 - - 21.8 1021.8 0.0
31/11:00am S 7 9 - - - - 10 Partly cloudy - 21.1 1022.2 0.0
31/10:30am SSW 9 11 - - - - 10 Partly cloudy - 20.5 1022.5 0.0
31/10:00am SSW 6 9 - - - - 10 Partly cloudy - 20.2 1022.7 0.0
31/09:30am S 7 10 - - - - 10 Partly cloudy - 19.4 1022.8 0.0
31/09:00am SSW 8 11 - - - - 10 Mostly clear - 18.9 1022.6 1.4
31/08:30am SW 8 9 - - - - 10 Partly cloudy - 17.6 1022.8 1.4
31/08:00am SW 7 9 - - - - 10 Partly cloudy - 17.0 1022.7 1.4
31/07:30am SW 5 7 - - - - 10 Partly cloudy - 16.5 1022.6 1.4
31/07:00am SW 6 8 - - - - 10 Partly cloudy - 16.2 1022.2 1.4
31/06:30am WSW 7 9 - - - - 10 Partly cloudy - 16.0 1021.9 1.4
31/06:00am SSW 8 13 - - - - 10 Mostly cloudy - 16.5 1021.5 1.4
31/05:30am SSW 8 10 - - - - 10 Partly cloudy - 16.2 1021.2 1.4
31/05:00am SW 5 7 - - - - 10 Partly cloudy - 16.1 1021.0 1.4
31/04:30am SSW 6 7 - - - - 10 Partly cloudy - 16.3 1020.7 1.4
31/04:00am SSW 7 9 - - - - 10 Partly cloudy - 16.6 1020.7 1.4
31/03:30am S 9 13 - - - - 10 Partly cloudy - 16.6 1020.9 1.4
31/03:00am W 4 6 - - - - 8 Mostly cloudy Showers 16.6 1021.7 1.4
31/02:53am NW 5 8 - - - - 10 Partly cloudy - 16.5 1021.9 1.4
31/02:35am NNW 7 11 - - - - 6 Partly cloudy - 16.5 1022.1 1.2
31/02:30am N 7 11 - - - - 10 Partly cloudy - 16.5 1022.2 0.8
31/02:00am SW 8 10 - - - - 10 Partly cloudy - 16.7 1021.9 0.2
31/01:30am SSW 6 7 - - - - 10 Partly cloudy - 16.3 1022.3 0.2
31/01:00am WSW 3 7 - - - - 10 Partly cloudy - 15.5 1022.4 0.2
31/12:30am WSW 2 4 - - - - 10 Partly cloudy - 14.9 1022.3 0.0
31/12:00am WNW 5 5 - - - - 10 Mostly clear - 13.8 1022.0 0.0
 
Date/Time
EST
Wind Sea
Height
m
Swell Vis
km
Cloud Weather Temp
°C
Press
hPa
Rain since
9am
mm
Dir  Spd
kts
Gust
kts
Height
m
Period
s
Dir
30/11:30pm WNW 7 7 - - - - 10 - - 14.3 1022.3 0.0
30/11:00pm SSW 5 6 - - - - 10 - - 15.3 1022.5 0.0
30/10:30pm WSW 4 5 - - - - 10 - - 15.7 1022.6 0.0
30/10:00pm SW 5 7 - - - - 10 - - 16.5 1022.7 0.0
30/09:30pm SW 6 7 - - - - 10 Partly cloudy - 17.0 1022.5 0.0
30/09:00pm SW 6 7 - - - - 10 Mostly cloudy - 17.8 1022.7 0.0
30/08:30pm S 6 8 - - - - 10 Partly cloudy - 18.1 1022.5 0.0
30/08:00pm S 8 9 - - - - 10 Partly cloudy - 17.9 1022.7 0.0
30/07:30pm S 7 9 - - - - 10 Partly cloudy - 17.9 1022.8 0.0
30/07:00pm S 7 8 - - - - 10 - - 18.0 1022.7 0.0
30/06:30pm S 7 8 - - - - 10 - - 18.5 1022.6 0.0
30/06:00pm S 8 9 - - - - 10 - - 19.0 1022.4 0.0
30/05:30pm S 8 11 - - - - 10 - - 19.4 1022.4 0.0
30/05:00pm S 9 13 - - - - 10 Partly cloudy - 20.1 1022.5 0.0
30/04:30pm S 11 15 - - - - 10 Partly cloudy - 20.7 1022.4 0.0
30/04:00pm SSE 12 17 - - - - 10 - - 21.5 1022.3 0.0
30/03:30pm SSE 11 14 - - - - 10 - - 22.3 1021.9 0.0
30/03:00pm SSE 11 14 - - - - 10 - - 22.3 1021.8 0.0
30/02:30pm SSE 13 17 - - - - 10 - - 22.7 1021.9 0.0
30/02:00pm SSE 12 16 - - - - 10 - - 22.8 1022.0 0.0
30/01:30pm SSE 15 20 - - - - 10 - - 22.8 1022.1 0.0
30/01:00pm SSE 13 18 - - - - 10 - - 22.9 1022.3 0.0
30/12:30pm SSE 13 18 - - - - 10 - - 22.8 1022.6 0.0
30/12:00pm SSE 14 19 - - - - 10 - - 22.2 1023.2 0.0
30/11:30am SSE 13 17 - - - - 10 Partly cloudy - 22.0 1023.5 0.0
30/11:00am S 11 15 - - - - 10 Cloudy - 21.1 1023.9 0.0
30/10:30am S 11 17 - - - - 10 Partly cloudy - 21.4 1024.1 0.0
30/10:00am S 13 18 - - - - 10 Partly cloudy - 20.4 1024.4 0.0
30/09:30am S 14 19 - - - - 10 - - 20.0 1024.6 0.0
30/09:00am S 14 19 - - - - 10 Partly cloudy - 19.6 1024.6 0.0
30/08:30am SSW 14 20 - - - - 10 - - 18.7 1024.5 0.0
30/08:00am SSW 12 18 - - - - 10 Partly cloudy - 17.6 1024.4 0.0
30/07:30am SSW 13 19 - - - - 10 - - 17.5 1023.9 0.0
30/07:00am SSW 12 17 - - - - 10 - - 16.8 1023.9 0.0
30/06:30am SSW 11 15 - - - - 10 - - 16.3 1023.7 0.0
30/06:00am SSW 12 15 - - - - 10 - - 16.4 1023.3 0.0
30/05:30am SSW 14 17 - - - - 10 - - 16.6 1023.0 0.0
30/05:00am SSW 12 17 - - - - 10 - - 16.5 1022.9 0.0
30/04:30am SSW 13 16 - - - - 10 - - 16.5 1022.4 0.0
30/04:00am SSW 13 19 - - - - 10 - - 16.7 1022.4 0.0
30/03:30am SSW 12 15 - - - - 10 - - 16.7 1022.3 0.0
30/03:00am SSW 12 16 - - - - 10 - - 16.9 1022.3 0.0
30/02:30am SSW 12 15 - - - - 10 - - 17.0 1022.3 0.0
30/02:00am SSW 11 16 - - - - 10 - - 17.3 1022.4 0.0
30/01:30am SSW 13 16 - - - - 10 - - 17.4 1022.4 0.0
30/01:00am SSW 13 16 - - - - 10 - - 17.2 1022.5 0.0
30/12:30am SSW 11 14 - - - - 10 - - 17.1 1022.8 0.0
30/12:00am SSW 12 16 - - - - 10 - - 17.3 1022.9 0.0
 
Date/Time
EST
Wind Sea
Height
m
Swell Vis
km
Cloud Weather Temp
°C
Press
hPa
Rain since
9am
mm
Dir  Spd
kts
Gust
kts
Height
m
Period
s
Dir
29/11:30pm SSW 11 15 - - - - 10 - - 17.4 1023.0 0.0
29/11:00pm SSW 11 16 - - - - 10 - - 17.6 1023.1 0.0
29/10:30pm SSW 10 13 - - - - 10 Partly cloudy - 17.7 1023.4 0.0
29/10:00pm SSW 8 11 - - - - 10 - - 17.8 1023.4 0.0
29/09:30pm SSW 8 10 - - - - 10 - - 17.9 1023.4 0.0
29/09:00pm S 8 11 - - - - 10 Mostly clear - 18.5 1023.3 0.0
29/08:30pm S 12 19 - - - - 10 Cloudy - 19.5 1023.2 0.0

Other formats

Comma delimited format used in spreadsheet applications
http://www.bom.gov.au/fwo/IDQ60701/IDQ60701.94569.axf

JavaScript Object Notation format (JSON) in row-major order
http://www.bom.gov.au/fwo/IDQ60701/IDQ60701.94569.json

Data quality

Most of these data are generated automatically and are frequently updated. Quality checks on data are not normally performed. It is possible for incorrect values to appear. Refer to information at About Latest Weather Observations and please check the disclaimer before using these data.